sensor_id;sensor_type;location;lat;lon;timestamp;P1;durP1;ratioP1;P2;durP2;ratioP2
46322;SDS011;32044;52.386;13.278;2022-07-23T00:00:45;6.95;;;6.25;;
46322;SDS011;32044;52.386;13.278;2022-07-23T00:03:12;8.15;;;7.07;;
46322;SDS011;32044;52.386;13.278;2022-07-23T00:05:37;8.45;;;7.65;;
46322;SDS011;32044;52.386;13.278;2022-07-23T00:08:03;7.07;;;6.40;;
46322;SDS011;32044;52.386;13.278;2022-07-23T00:10:28;12.07;;;7.30;;
46322;SDS011;32044;52.386;13.278;2022-07-23T00:12:53;8.80;;;7.20;;
46322;SDS011;32044;52.386;13.278;2022-07-23T00:15:19;7.93;;;6.97;;
46322;SDS011;32044;52.386;13.278;2022-07-23T00:17:44;8.18;;;7.38;;
46322;SDS011;32044;52.386;13.278;2022-07-23T00:20:09;9.57;;;7.00;;
46322;SDS011;32044;52.386;13.278;2022-07-23T00:22:35;8.30;;;6.95;;
46322;SDS011;32044;52.386;13.278;2022-07-23T00:25:00;12.48;;;8.57;;
46322;SDS011;32044;52.386;13.278;2022-07-23T00:27:26;13.52;;;9.20;;
46322;SDS011;32044;52.386;13.278;2022-07-23T00:29:51;11.48;;;9.52;;
46322;SDS011;32044;52.386;13.278;2022-07-23T00:32:16;11.20;;;8.98;;
46322;SDS011;32044;52.386;13.278;2022-07-23T00:34:42;13.45;;;8.73;;
46322;SDS011;32044;52.386;13.278;2022-07-23T00:37:07;9.32;;;8.18;;
46322;SDS011;32044;52.386;13.278;2022-07-23T00:39:32;7.82;;;6.50;;
46322;SDS011;32044;52.386;13.278;2022-07-23T00:41:57;8.57;;;6.63;;
46322;SDS011;32044;52.386;13.278;2022-07-23T00:44:23;7.43;;;6.72;;
46322;SDS011;32044;52.386;13.278;2022-07-23T00:46:51;9.43;;;7.18;;
46322;SDS011;32044;52.386;13.278;2022-07-23T00:49:22;9.65;;;7.65;;
46322;SDS011;32044;52.386;13.278;2022-07-23T00:51:50;8.52;;;7.72;;
46322;SDS011;32044;52.386;13.278;2022-07-23T00:54:16;13.52;;;7.55;;
46322;SDS011;32044;52.386;13.278;2022-07-23T00:56:45;8.23;;;7.07;;
46322;SDS011;32044;52.386;13.278;2022-07-23T00:59:11;7.68;;;6.53;;
46322;SDS011;32044;52.386;13.278;2022-07-23T01:01:37;6.70;;;6.00;;
46322;SDS011;32044;52.386;13.278;2022-07-23T01:04:02;7.68;;;6.28;;
46322;SDS011;32044;52.386;13.278;2022-07-23T01:06:28;7.00;;;6.30;;
46322;SDS011;32044;52.386;13.278;2022-07-23T01:08:54;13.77;;;7.53;;
46322;SDS011;32044;52.386;13.278;2022-07-23T01:11:19;7.63;;;6.68;;
46322;SDS011;32044;52.386;13.278;2022-07-23T01:13:45;6.68;;;5.57;;
46322;SDS011;32044;52.386;13.278;2022-07-23T01:16:10;8.52;;;7.00;;
46322;SDS011;32044;52.386;13.278;2022-07-23T01:18:36;6.97;;;6.28;;
46322;SDS011;32044;52.386;13.278;2022-07-23T01:21:01;6.00;;;5.40;;
46322;SDS011;32044;52.386;13.278;2022-07-23T01:23:27;6.03;;;5.32;;
46322;SDS011;32044;52.386;13.278;2022-07-23T01:25:52;5.85;;;5.30;;
46322;SDS011;32044;52.386;13.278;2022-07-23T01:28:18;7.40;;;6.05;;
46322;SDS011;32044;52.386;13.278;2022-07-23T01:30:44;7.97;;;6.03;;
46322;SDS011;32044;52.386;13.278;2022-07-23T01:33:10;6.90;;;6.20;;
46322;SDS011;32044;52.386;13.278;2022-07-23T01:35:35;7.70;;;6.35;;
46322;SDS011;32044;52.386;13.278;2022-07-23T01:38:00;9.00;;;6.55;;
46322;SDS011;32044;52.386;13.278;2022-07-23T01:40:25;9.40;;;6.75;;
46322;SDS011;32044;52.386;13.278;2022-07-23T01:42:51;8.38;;;7.60;;
46322;SDS011;32044;52.386;13.278;2022-07-23T01:45:16;7.47;;;6.78;;
46322;SDS011;32044;52.386;13.278;2022-07-23T01:47:41;10.20;;;7.22;;
46322;SDS011;32044;52.386;13.278;2022-07-23T01:50:07;8.32;;;6.45;;
46322;SDS011;32044;52.386;13.278;2022-07-23T01:52:32;7.22;;;6.50;;
46322;SDS011;32044;52.386;13.278;2022-07-23T01:54:57;6.72;;;6.03;;
46322;SDS011;32044;52.386;13.278;2022-07-23T01:57:23;7.97;;;5.95;;
46322;SDS011;32044;52.386;13.278;2022-07-23T01:59:48;7.05;;;5.95;;
46322;SDS011;32044;52.386;13.278;2022-07-23T02:02:13;6.53;;;5.90;;
46322;SDS011;32044;52.386;13.278;2022-07-23T02:04:39;9.52;;;5.50;;
46322;SDS011;32044;52.386;13.278;2022-07-23T02:07:04;9.40;;;7.55;;
46322;SDS011;32044;52.386;13.278;2022-07-23T02:09:30;9.02;;;6.82;;
46322;SDS011;32044;52.386;13.278;2022-07-23T02:11:55;7.45;;;6.68;;
46322;SDS011;32044;52.386;13.278;2022-07-23T02:14:20;7.93;;;7.13;;
46322;SDS011;32044;52.386;13.278;2022-07-23T02:16:45;7.47;;;6.07;;
46322;SDS011;32044;52.386;13.278;2022-07-23T02:19:11;8.38;;;6.43;;
46322;SDS011;32044;52.386;13.278;2022-07-23T02:21:36;7.85;;;6.70;;
46322;SDS011;32044;52.386;13.278;2022-07-23T02:24:01;7.05;;;6.07;;
46322;SDS011;32044;52.386;13.278;2022-07-23T02:26:27;7.18;;;6.35;;
46322;SDS011;32044;52.386;13.278;2022-07-23T02:28:52;9.05;;;7.13;;
46322;SDS011;32044;52.386;13.278;2022-07-23T02:31:20;8.25;;;6.50;;
46322;SDS011;32044;52.386;13.278;2022-07-23T02:33:45;8.70;;;5.82;;
46322;SDS011;32044;52.386;13.278;2022-07-23T02:36:10;8.30;;;6.10;;
46322;SDS011;32044;52.386;13.278;2022-07-23T02:38:36;7.05;;;5.90;;
46322;SDS011;32044;52.386;13.278;2022-07-23T02:41:01;7.43;;;6.00;;
46322;SDS011;32044;52.386;13.278;2022-07-23T02:43:26;7.38;;;6.28;;
46322;SDS011;32044;52.386;13.278;2022-07-23T02:45:51;6.82;;;5.88;;
46322;SDS011;32044;52.386;13.278;2022-07-23T02:48:17;6.88;;;5.95;;
46322;SDS011;32044;52.386;13.278;2022-07-23T02:50:42;8.00;;;6.15;;
46322;SDS011;32044;52.386;13.278;2022-07-23T02:53:07;7.95;;;6.30;;
46322;SDS011;32044;52.386;13.278;2022-07-23T02:55:33;7.13;;;6.43;;
46322;SDS011;32044;52.386;13.278;2022-07-23T02:57:58;8.07;;;6.47;;
46322;SDS011;32044;52.386;13.278;2022-07-23T03:00:23;6.78;;;6.07;;
46322;SDS011;32044;52.386;13.278;2022-07-23T03:02:49;6.82;;;5.97;;
46322;SDS011;32044;52.386;13.278;2022-07-23T03:05:14;8.98;;;6.80;;
46322;SDS011;32044;52.386;13.278;2022-07-23T03:07:39;9.45;;;6.78;;
46322;SDS011;32044;52.386;13.278;2022-07-23T03:10:05;8.32;;;6.55;;
46322;SDS011;32044;52.386;13.278;2022-07-23T03:12:30;7.90;;;6.13;;
46322;SDS011;32044;52.386;13.278;2022-07-23T03:14:55;8.45;;;7.55;;
46322;SDS011;32044;52.386;13.278;2022-07-23T03:17:20;10.57;;;7.82;;
46322;SDS011;32044;52.386;13.278;2022-07-23T03:19:46;9.15;;;6.97;;
46322;SDS011;32044;52.386;13.278;2022-07-23T03:22:11;7.75;;;6.60;;
46322;SDS011;32044;52.386;13.278;2022-07-23T03:24:36;8.85;;;7.00;;
46322;SDS011;32044;52.386;13.278;2022-07-23T03:27:20;8.23;;;6.88;;
46322;SDS011;32044;52.386;13.278;2022-07-23T03:29:50;11.45;;;7.82;;
46322;SDS011;32044;52.386;13.278;2022-07-23T03:32:16;8.40;;;6.47;;
46322;SDS011;32044;52.386;13.278;2022-07-23T03:34:41;12.52;;;7.88;;
46322;SDS011;32044;52.386;13.278;2022-07-23T03:37:06;12.35;;;7.95;;
46322;SDS011;32044;52.386;13.278;2022-07-23T03:39:32;9.05;;;7.25;;
46322;SDS011;32044;52.386;13.278;2022-07-23T03:41:57;8.52;;;7.00;;
46322;SDS011;32044;52.386;13.278;2022-07-23T03:44:22;11.77;;;6.63;;
46322;SDS011;32044;52.386;13.278;2022-07-23T03:46:48;8.35;;;6.90;;
46322;SDS011;32044;52.386;13.278;2022-07-23T03:49:13;11.68;;;6.82;;
46322;SDS011;32044;52.386;13.278;2022-07-23T03:51:38;8.77;;;6.63;;
46322;SDS011;32044;52.386;13.278;2022-07-23T03:54:04;9.80;;;6.43;;
46322;SDS011;32044;52.386;13.278;2022-07-23T03:56:29;10.73;;;6.47;;
46322;SDS011;32044;52.386;13.278;2022-07-23T03:58:54;9.00;;;6.97;;
46322;SDS011;32044;52.386;13.278;2022-07-23T04:01:20;10.35;;;6.72;;
46322;SDS011;32044;52.386;13.278;2022-07-23T04:03:45;9.13;;;6.88;;
46322;SDS011;32044;52.386;13.278;2022-07-23T04:06:11;10.80;;;7.00;;
46322;SDS011;32044;52.386;13.278;2022-07-23T04:08:36;10.18;;;6.43;;
46322;SDS011;32044;52.386;13.278;2022-07-23T04:11:02;13.65;;;6.50;;
46322;SDS011;32044;52.386;13.278;2022-07-23T04:13:27;9.32;;;5.63;;
46322;SDS011;32044;52.386;13.278;2022-07-23T04:15:52;9.57;;;5.55;;
46322;SDS011;32044;52.386;13.278;2022-07-23T04:18:18;7.32;;;5.20;;
46322;SDS011;32044;52.386;13.278;2022-07-23T04:20:43;13.55;;;5.57;;
46322;SDS011;32044;52.386;13.278;2022-07-23T04:23:09;8.15;;;5.18;;
46322;SDS011;32044;52.386;13.278;2022-07-23T04:25:34;6.03;;;4.80;;
46322;SDS011;32044;52.386;13.278;2022-07-23T04:28:00;8.90;;;5.30;;
46322;SDS011;32044;52.386;13.278;2022-07-23T04:30:25;13.50;;;5.78;;
46322;SDS011;32044;52.386;13.278;2022-07-23T04:32:50;9.73;;;4.60;;
46322;SDS011;32044;52.386;13.278;2022-07-23T04:35:16;9.27;;;5.07;;
46322;SDS011;32044;52.386;13.278;2022-07-23T04:37:41;10.30;;;5.15;;
46322;SDS011;32044;52.386;13.278;2022-07-23T04:40:06;9.07;;;4.88;;
46322;SDS011;32044;52.386;13.278;2022-07-23T04:42:32;9.63;;;5.20;;
46322;SDS011;32044;52.386;13.278;2022-07-23T04:44:57;8.23;;;4.93;;
46322;SDS011;32044;52.386;13.278;2022-07-23T04:47:22;14.75;;;5.53;;
46322;SDS011;32044;52.386;13.278;2022-07-23T04:49:48;12.07;;;5.57;;
46322;SDS011;32044;52.386;13.278;2022-07-23T04:52:13;12.50;;;6.63;;
46322;SDS011;32044;52.386;13.278;2022-07-23T04:54:40;10.50;;;6.05;;
46322;SDS011;32044;52.386;13.278;2022-07-23T04:57:05;13.32;;;6.50;;
46322;SDS011;32044;52.386;13.278;2022-07-23T04:59:30;15.32;;;6.82;;
46322;SDS011;32044;52.386;13.278;2022-07-23T05:01:56;12.18;;;6.22;;
46322;SDS011;32044;52.386;13.278;2022-07-23T05:04:21;12.75;;;6.30;;
46322;SDS011;32044;52.386;13.278;2022-07-23T05:06:46;10.05;;;5.75;;
46322;SDS011;32044;52.386;13.278;2022-07-23T05:09:11;11.07;;;6.40;;
46322;SDS011;32044;52.386;13.278;2022-07-23T05:11:37;10.10;;;5.93;;
46322;SDS011;32044;52.386;13.278;2022-07-23T05:14:02;10.40;;;6.15;;
46322;SDS011;32044;52.386;13.278;2022-07-23T05:16:27;12.23;;;5.78;;
46322;SDS011;32044;52.386;13.278;2022-07-23T05:18:53;10.32;;;5.80;;
46322;SDS011;32044;52.386;13.278;2022-07-23T05:21:18;9.73;;;5.72;;
46322;SDS011;32044;52.386;13.278;2022-07-23T05:23:44;7.22;;;5.15;;
46322;SDS011;32044;52.386;13.278;2022-07-23T05:26:09;13.07;;;5.55;;
46322;SDS011;32044;52.386;13.278;2022-07-23T05:28:34;11.13;;;5.00;;
46322;SDS011;32044;52.386;13.278;2022-07-23T05:31:00;6.30;;;4.20;;
46322;SDS011;32044;52.386;13.278;2022-07-23T05:33:25;5.85;;;5.05;;
46322;SDS011;32044;52.386;13.278;2022-07-23T05:35:50;8.73;;;5.07;;
46322;SDS011;32044;52.386;13.278;2022-07-23T05:38:16;8.85;;;4.85;;
46322;SDS011;32044;52.386;13.278;2022-07-23T05:40:41;7.45;;;4.82;;
46322;SDS011;32044;52.386;13.278;2022-07-23T05:43:06;9.40;;;5.28;;
46322;SDS011;32044;52.386;13.278;2022-07-23T05:45:31;6.85;;;4.53;;
46322;SDS011;32044;52.386;13.278;2022-07-23T05:47:57;9.98;;;5.72;;
46322;SDS011;32044;52.386;13.278;2022-07-23T05:50:22;9.50;;;4.80;;
46322;SDS011;32044;52.386;13.278;2022-07-23T05:52:47;8.57;;;4.60;;
46322;SDS011;32044;52.386;13.278;2022-07-23T05:55:12;8.95;;;4.70;;
46322;SDS011;32044;52.386;13.278;2022-07-23T05:57:38;5.28;;;4.05;;
46322;SDS011;32044;52.386;13.278;2022-07-23T06:00:04;5.00;;;3.90;;
46322;SDS011;32044;52.386;13.278;2022-07-23T06:02:30;7.22;;;4.50;;
46322;SDS011;32044;52.386;13.278;2022-07-23T06:04:56;5.85;;;3.88;;
46322;SDS011;32044;52.386;13.278;2022-07-23T06:07:21;7.30;;;4.90;;
46322;SDS011;32044;52.386;13.278;2022-07-23T06:09:46;6.65;;;4.10;;
46322;SDS011;32044;52.386;13.278;2022-07-23T06:12:13;4.50;;;3.90;;
46322;SDS011;32044;52.386;13.278;2022-07-23T06:14:39;5.40;;;3.92;;
46322;SDS011;32044;52.386;13.278;2022-07-23T06:17:04;5.00;;;3.78;;
46322;SDS011;32044;52.386;13.278;2022-07-23T06:19:29;4.80;;;2.95;;
46322;SDS011;32044;52.386;13.278;2022-07-23T06:21:54;8.57;;;5.18;;
46322;SDS011;32044;52.386;13.278;2022-07-23T06:24:20;9.20;;;4.75;;
46322;SDS011;32044;52.386;13.278;2022-07-23T06:26:45;8.02;;;3.97;;
46322;SDS011;32044;52.386;13.278;2022-07-23T06:29:10;10.43;;;4.78;;
46322;SDS011;32044;52.386;13.278;2022-07-23T06:31:36;6.25;;;4.25;;
46322;SDS011;32044;52.386;13.278;2022-07-23T06:34:01;8.55;;;3.80;;
46322;SDS011;32044;52.386;13.278;2022-07-23T06:36:26;6.05;;;4.07;;
46322;SDS011;32044;52.386;13.278;2022-07-23T06:38:52;9.00;;;4.78;;
46322;SDS011;32044;52.386;13.278;2022-07-23T06:41:17;7.82;;;4.90;;
46322;SDS011;32044;52.386;13.278;2022-07-23T06:43:42;5.65;;;4.07;;
46322;SDS011;32044;52.386;13.278;2022-07-23T06:46:07;8.23;;;4.50;;
46322;SDS011;32044;52.386;13.278;2022-07-23T06:48:33;7.82;;;4.63;;
46322;SDS011;32044;52.386;13.278;2022-07-23T06:51:00;8.73;;;4.93;;
46322;SDS011;32044;52.386;13.278;2022-07-23T06:53:25;8.13;;;4.07;;
46322;SDS011;32044;52.386;13.278;2022-07-23T06:55:51;11.25;;;5.28;;
46322;SDS011;32044;52.386;13.278;2022-07-23T06:58:16;10.60;;;5.53;;
46322;SDS011;32044;52.386;13.278;2022-07-23T07:00:41;12.10;;;5.85;;
46322;SDS011;32044;52.386;13.278;2022-07-23T07:03:06;7.80;;;4.70;;
46322;SDS011;32044;52.386;13.278;2022-07-23T07:05:57;10.93;;;4.90;;
46322;SDS011;32044;52.386;13.278;2022-07-23T07:08:47;8.18;;;4.15;;
46322;SDS011;32044;52.386;13.278;2022-07-23T07:11:37;10.40;;;4.28;;
46322;SDS011;32044;52.386;13.278;2022-07-23T07:14:27;10.18;;;4.70;;
46322;SDS011;32044;52.386;13.278;2022-07-23T07:43:05;8.27;;;4.97;;
46322;SDS011;32044;52.386;13.278;2022-07-23T07:45:30;8.30;;;4.88;;
46322;SDS011;32044;52.386;13.278;2022-07-23T07:47:56;9.05;;;5.07;;
46322;SDS011;32044;52.386;13.278;2022-07-23T07:50:22;6.13;;;3.78;;
46322;SDS011;32044;52.386;13.278;2022-07-23T07:52:47;12.02;;;5.40;;
46322;SDS011;32044;52.386;13.278;2022-07-23T07:55:13;6.88;;;4.43;;
46322;SDS011;32044;52.386;13.278;2022-07-23T07:57:38;5.57;;;3.95;;
46322;SDS011;32044;52.386;13.278;2022-07-23T08:00:04;6.45;;;4.18;;
46322;SDS011;32044;52.386;13.278;2022-07-23T08:02:39;8.13;;;4.80;;
46322;SDS011;32044;52.386;13.278;2022-07-23T08:05:14;8.45;;;4.25;;
46322;SDS011;32044;52.386;13.278;2022-07-23T08:07:43;9.65;;;4.65;;
46322;SDS011;32044;52.386;13.278;2022-07-23T08:10:09;9.38;;;4.50;;
46322;SDS011;32044;52.386;13.278;2022-07-23T08:12:38;8.18;;;4.90;;
46322;SDS011;32044;52.386;13.278;2022-07-23T08:15:12;9.35;;;4.00;;
46322;SDS011;32044;52.386;13.278;2022-07-23T08:17:39;7.93;;;5.20;;
46322;SDS011;32044;52.386;13.278;2022-07-23T08:20:05;7.15;;;5.28;;
46322;SDS011;32044;52.386;13.278;2022-07-23T08:22:51;9.00;;;5.70;;
46322;SDS011;32044;52.386;13.278;2022-07-23T08:25:20;8.25;;;4.38;;
46322;SDS011;32044;52.386;13.278;2022-07-23T08:27:48;8.18;;;4.22;;
46322;SDS011;32044;52.386;13.278;2022-07-23T08:30:14;10.65;;;5.20;;
46322;SDS011;32044;52.386;13.278;2022-07-23T08:32:49;7.60;;;4.43;;
46322;SDS011;32044;52.386;13.278;2022-07-23T08:35:15;7.65;;;4.00;;
46322;SDS011;32044;52.386;13.278;2022-07-23T08:37:41;7.72;;;4.88;;
46322;SDS011;32044;52.386;13.278;2022-07-23T08:40:06;7.22;;;4.00;;
46322;SDS011;32044;52.386;13.278;2022-07-23T08:42:32;8.70;;;4.78;;
46322;SDS011;32044;52.386;13.278;2022-07-23T08:45:00;9.70;;;4.30;;
46322;SDS011;32044;52.386;13.278;2022-07-23T08:47:27;7.63;;;4.10;;
46322;SDS011;32044;52.386;13.278;2022-07-23T08:49:52;8.05;;;4.57;;
46322;SDS011;32044;52.386;13.278;2022-07-23T08:52:18;9.23;;;4.85;;
46322;SDS011;32044;52.386;13.278;2022-07-23T08:54:43;8.98;;;4.00;;
46322;SDS011;32044;52.386;13.278;2022-07-23T08:57:09;7.07;;;4.22;;
46322;SDS011;32044;52.386;13.278;2022-07-23T08:59:34;7.03;;;3.90;;
46322;SDS011;32044;52.386;13.278;2022-07-23T09:01:59;8.43;;;3.80;;
46322;SDS011;32044;52.386;13.278;2022-07-23T09:04:25;10.75;;;5.20;;
46322;SDS011;32044;52.386;13.278;2022-07-23T09:06:51;10.75;;;4.97;;
46322;SDS011;32044;52.386;13.278;2022-07-23T09:09:17;11.38;;;3.90;;
46322;SDS011;32044;52.386;13.278;2022-07-23T09:11:46;8.63;;;4.20;;
46322;SDS011;32044;52.386;13.278;2022-07-23T09:14:12;9.10;;;4.20;;
46322;SDS011;32044;52.386;13.278;2022-07-23T09:16:37;9.05;;;4.13;;
46322;SDS011;32044;52.386;13.278;2022-07-23T09:19:03;6.05;;;3.60;;
46322;SDS011;32044;52.386;13.278;2022-07-23T09:21:30;6.38;;;3.92;;
46322;SDS011;32044;52.386;13.278;2022-07-23T09:24:01;8.65;;;4.18;;
46322;SDS011;32044;52.386;13.278;2022-07-23T09:26:40;10.00;;;4.57;;
46322;SDS011;32044;52.386;13.278;2022-07-23T09:29:08;11.30;;;4.10;;
46322;SDS011;32044;52.386;13.278;2022-07-23T09:31:45;10.65;;;4.97;;
46322;SDS011;32044;52.386;13.278;2022-07-23T09:34:19;8.13;;;4.90;;
46322;SDS011;32044;52.386;13.278;2022-07-23T09:36:45;5.65;;;4.20;;
46322;SDS011;32044;52.386;13.278;2022-07-23T09:39:11;7.72;;;4.25;;
46322;SDS011;32044;52.386;13.278;2022-07-23T09:41:38;8.63;;;4.38;;
46322;SDS011;32044;52.386;13.278;2022-07-23T09:44:08;9.25;;;4.20;;
46322;SDS011;32044;52.386;13.278;2022-07-23T09:46:35;9.90;;;4.43;;
46322;SDS011;32044;52.386;13.278;2022-07-23T09:49:00;8.93;;;4.30;;
46322;SDS011;32044;52.386;13.278;2022-07-23T09:51:43;7.35;;;4.03;;
46322;SDS011;32044;52.386;13.278;2022-07-23T09:54:24;8.45;;;4.45;;
46322;SDS011;32044;52.386;13.278;2022-07-23T09:56:51;7.85;;;3.95;;
46322;SDS011;32044;52.386;13.278;2022-07-23T09:59:18;5.07;;;3.58;;
46322;SDS011;32044;52.386;13.278;2022-07-23T10:01:47;7.93;;;4.28;;
46322;SDS011;32044;52.386;13.278;2022-07-23T10:04:12;8.18;;;4.20;;
46322;SDS011;32044;52.386;13.278;2022-07-23T10:06:38;6.68;;;4.68;;
46322;SDS011;32044;52.386;13.278;2022-07-23T10:09:04;7.30;;;4.07;;
46322;SDS011;32044;52.386;13.278;2022-07-23T10:11:30;4.88;;;3.60;;
46322;SDS011;32044;52.386;13.278;2022-07-23T10:13:56;5.68;;;3.85;;
46322;SDS011;32044;52.386;13.278;2022-07-23T10:16:26;5.32;;;3.53;;
46322;SDS011;32044;52.386;13.278;2022-07-23T10:18:51;6.80;;;3.53;;
46322;SDS011;32044;52.386;13.278;2022-07-23T10:21:21;7.88;;;3.55;;
46322;SDS011;32044;52.386;13.278;2022-07-23T10:26:50;7.07;;;3.55;;
46322;SDS011;32044;52.386;13.278;2022-07-23T10:29:29;8.95;;;3.50;;
46322;SDS011;32044;52.386;13.278;2022-07-23T10:32:23;5.53;;;3.90;;
46322;SDS011;32044;52.386;13.278;2022-07-23T10:37:44;6.03;;;3.78;;
46322;SDS011;32044;52.386;13.278;2022-07-23T10:42:42;8.65;;;3.55;;
46322;SDS011;32044;52.386;13.278;2022-07-23T10:45:21;7.32;;;3.50;;
46322;SDS011;32044;52.386;13.278;2022-07-23T10:47:50;5.57;;;3.47;;
46322;SDS011;32044;52.386;13.278;2022-07-23T10:50:22;7.82;;;3.50;;
46322;SDS011;32044;52.386;13.278;2022-07-23T10:58:20;8.85;;;4.22;;
46322;SDS011;32044;52.386;13.278;2022-07-23T11:00:47;5.15;;;3.67;;
46322;SDS011;32044;52.386;13.278;2022-07-23T11:03:32;5.90;;;3.70;;
46322;SDS011;32044;52.386;13.278;2022-07-23T11:06:01;3.78;;;2.85;;
46322;SDS011;32044;52.386;13.278;2022-07-23T11:08:26;6.43;;;3.30;;
46322;SDS011;32044;52.386;13.278;2022-07-23T11:11:13;8.77;;;3.95;;
46322;SDS011;32044;52.386;13.278;2022-07-23T11:13:38;8.63;;;4.07;;
46322;SDS011;32044;52.386;13.278;2022-07-23T11:16:11;5.60;;;3.03;;
46322;SDS011;32044;52.386;13.278;2022-07-23T11:34:44;7.75;;;3.58;;
46322;SDS011;32044;52.386;13.278;2022-07-23T11:37:31;5.38;;;3.08;;
46322;SDS011;32044;52.386;13.278;2022-07-23T11:40:02;7.55;;;3.47;;
46322;SDS011;32044;52.386;13.278;2022-07-23T11:42:29;5.35;;;3.33;;
46322;SDS011;32044;52.386;13.278;2022-07-23T11:44:55;5.18;;;2.90;;
46322;SDS011;32044;52.386;13.278;2022-07-23T11:47:21;5.60;;;3.30;;
46322;SDS011;32044;52.386;13.278;2022-07-23T11:49:52;6.22;;;3.22;;
46322;SDS011;32044;52.386;13.278;2022-07-23T11:52:18;9.15;;;3.50;;
46322;SDS011;32044;52.386;13.278;2022-07-23T11:57:19;3.80;;;3.10;;
46322;SDS011;32044;52.386;13.278;2022-07-23T11:59:50;5.13;;;2.80;;
46322;SDS011;32044;52.386;13.278;2022-07-23T12:02:16;4.28;;;3.05;;
46322;SDS011;32044;52.386;13.278;2022-07-23T12:04:43;6.75;;;3.90;;
46322;SDS011;32044;52.386;13.278;2022-07-23T12:07:30;5.80;;;4.03;;
46322;SDS011;32044;52.386;13.278;2022-07-23T12:09:57;8.88;;;3.88;;
46322;SDS011;32044;52.386;13.278;2022-07-23T12:12:24;4.45;;;3.25;;
46322;SDS011;32044;52.386;13.278;2022-07-23T12:14:54;6.20;;;4.10;;
46322;SDS011;32044;52.386;13.278;2022-07-23T12:17:24;7.70;;;3.75;;
46322;SDS011;32044;52.386;13.278;2022-07-23T12:19:54;10.02;;;3.42;;
46322;SDS011;32044;52.386;13.278;2022-07-23T12:22:20;6.72;;;3.60;;
46322;SDS011;32044;52.386;13.278;2022-07-23T12:24:56;5.90;;;3.53;;
46322;SDS011;32044;52.386;13.278;2022-07-23T12:27:25;5.88;;;3.40;;
46322;SDS011;32044;52.386;13.278;2022-07-23T12:29:52;5.45;;;3.42;;
46322;SDS011;32044;52.386;13.278;2022-07-23T12:32:18;6.88;;;3.70;;
46322;SDS011;32044;52.386;13.278;2022-07-23T12:34:45;8.02;;;3.80;;
46322;SDS011;32044;52.386;13.278;2022-07-23T12:37:24;6.75;;;3.65;;
46322;SDS011;32044;52.386;13.278;2022-07-23T12:39:54;5.45;;;3.35;;
46322;SDS011;32044;52.386;13.278;2022-07-23T12:42:19;5.45;;;3.35;;
46322;SDS011;32044;52.386;13.278;2022-07-23T12:47:30;5.32;;;3.20;;
46322;SDS011;32044;52.386;13.278;2022-07-23T12:49:55;6.95;;;3.47;;
46322;SDS011;32044;52.386;13.278;2022-07-23T12:52:21;5.68;;;3.50;;
46322;SDS011;32044;52.386;13.278;2022-07-23T12:54:46;6.32;;;3.47;;
46322;SDS011;32044;52.386;13.278;2022-07-23T12:57:11;6.63;;;3.65;;
46322;SDS011;32044;52.386;13.278;2022-07-23T12:59:37;6.10;;;3.80;;
46322;SDS011;32044;52.386;13.278;2022-07-23T13:02:03;5.95;;;3.60;;
46322;SDS011;32044;52.386;13.278;2022-07-23T13:04:28;7.82;;;3.17;;
46322;SDS011;32044;52.386;13.278;2022-07-23T13:06:54;6.90;;;3.80;;
46322;SDS011;32044;52.386;13.278;2022-07-23T13:09:23;5.72;;;3.00;;
46322;SDS011;32044;52.386;13.278;2022-07-23T13:11:50;4.28;;;2.83;;
46322;SDS011;32044;52.386;13.278;2022-07-23T13:14:17;6.05;;;3.40;;
46322;SDS011;32044;52.386;13.278;2022-07-23T13:16:43;6.38;;;3.30;;
46322;SDS011;32044;52.386;13.278;2022-07-23T13:19:09;4.82;;;3.20;;
46322;SDS011;32044;52.386;13.278;2022-07-23T13:21:34;5.88;;;3.15;;
46322;SDS011;32044;52.386;13.278;2022-07-23T13:23:59;4.68;;;3.53;;
46322;SDS011;32044;52.386;13.278;2022-07-23T13:26:25;4.25;;;3.03;;
46322;SDS011;32044;52.386;13.278;2022-07-23T13:28:51;5.72;;;3.30;;
46322;SDS011;32044;52.386;13.278;2022-07-23T13:31:16;5.43;;;3.03;;
46322;SDS011;32044;52.386;13.278;2022-07-23T13:33:42;5.28;;;3.13;;
46322;SDS011;32044;52.386;13.278;2022-07-23T13:36:07;5.82;;;3.22;;
46322;SDS011;32044;52.386;13.278;2022-07-23T13:38:32;6.15;;;3.15;;
46322;SDS011;32044;52.386;13.278;2022-07-23T13:40:58;4.87;;;3.10;;
46322;SDS011;32044;52.386;13.278;2022-07-23T13:43:24;6.68;;;2.88;;
46322;SDS011;32044;52.386;13.278;2022-07-23T13:45:51;6.18;;;2.80;;
46322;SDS011;32044;52.386;13.278;2022-07-23T13:48:17;3.97;;;2.80;;
46322;SDS011;32044;52.386;13.278;2022-07-23T13:50:44;5.28;;;2.65;;
46322;SDS011;32044;52.386;13.278;2022-07-23T13:53:11;2.63;;;2.20;;
46322;SDS011;32044;52.386;13.278;2022-07-23T13:55:38;3.83;;;2.55;;
46322;SDS011;32044;52.386;13.278;2022-07-23T13:58:04;4.50;;;2.70;;
46322;SDS011;32044;52.386;13.278;2022-07-23T14:00:30;6.75;;;3.00;;
46322;SDS011;32044;52.386;13.278;2022-07-23T14:02:56;4.25;;;3.17;;
46322;SDS011;32044;52.386;13.278;2022-07-23T14:05:22;8.70;;;2.88;;
46322;SDS011;32044;52.386;13.278;2022-07-23T14:07:47;4.15;;;2.50;;
46322;SDS011;32044;52.386;13.278;2022-07-23T14:10:15;7.47;;;2.67;;
46322;SDS011;32044;52.386;13.278;2022-07-23T14:12:41;3.90;;;2.60;;
46322;SDS011;32044;52.386;13.278;2022-07-23T14:15:06;3.55;;;2.47;;
46322;SDS011;32044;52.386;13.278;2022-07-23T14:17:33;4.32;;;2.53;;
46322;SDS011;32044;52.386;13.278;2022-07-23T14:19:59;4.65;;;2.60;;
46322;SDS011;32044;52.386;13.278;2022-07-23T14:22:24;4.57;;;2.42;;
46322;SDS011;32044;52.386;13.278;2022-07-23T14:24:49;3.67;;;2.60;;
46322;SDS011;32044;52.386;13.278;2022-07-23T14:27:15;3.55;;;2.20;;
46322;SDS011;32044;52.386;13.278;2022-07-23T14:29:40;4.10;;;2.28;;
46322;SDS011;32044;52.386;13.278;2022-07-23T14:32:06;3.83;;;2.00;;
46322;SDS011;32044;52.386;13.278;2022-07-23T14:34:31;3.97;;;2.58;;
46322;SDS011;32044;52.386;13.278;2022-07-23T14:36:57;3.67;;;2.28;;
46322;SDS011;32044;52.386;13.278;2022-07-23T14:39:22;3.40;;;2.40;;
46322;SDS011;32044;52.386;13.278;2022-07-23T14:41:48;5.85;;;2.50;;
46322;SDS011;32044;52.386;13.278;2022-07-23T14:44:13;4.80;;;2.55;;
46322;SDS011;32044;52.386;13.278;2022-07-23T14:46:38;4.67;;;2.40;;
46322;SDS011;32044;52.386;13.278;2022-07-23T14:49:04;5.22;;;2.45;;
46322;SDS011;32044;52.386;13.278;2022-07-23T14:51:29;3.67;;;2.50;;
46322;SDS011;32044;52.386;13.278;2022-07-23T14:53:55;3.47;;;2.22;;
46322;SDS011;32044;52.386;13.278;2022-07-23T14:56:20;5.63;;;2.30;;
46322;SDS011;32044;52.386;13.278;2022-07-23T14:58:45;4.25;;;2.20;;
46322;SDS011;32044;52.386;13.278;2022-07-23T15:01:11;3.47;;;2.10;;
46322;SDS011;32044;52.386;13.278;2022-07-23T15:03:36;3.07;;;1.83;;
46322;SDS011;32044;52.386;13.278;2022-07-23T15:06:01;5.32;;;2.25;;
46322;SDS011;32044;52.386;13.278;2022-07-23T15:08:27;4.80;;;2.10;;
46322;SDS011;32044;52.386;13.278;2022-07-23T15:10:52;2.92;;;1.80;;
46322;SDS011;32044;52.386;13.278;2022-07-23T15:13:17;4.47;;;2.17;;
46322;SDS011;32044;52.386;13.278;2022-07-23T15:15:43;2.97;;;2.00;;
46322;SDS011;32044;52.386;13.278;2022-07-23T15:18:08;5.22;;;2.00;;
46322;SDS011;32044;52.386;13.278;2022-07-23T15:20:34;3.53;;;1.85;;
46322;SDS011;32044;52.386;13.278;2022-07-23T15:22:59;3.00;;;2.10;;
46322;SDS011;32044;52.386;13.278;2022-07-23T15:25:24;4.20;;;1.85;;
46322;SDS011;32044;52.386;13.278;2022-07-23T15:27:49;5.20;;;2.03;;
46322;SDS011;32044;52.386;13.278;2022-07-23T15:30:15;3.33;;;1.90;;
46322;SDS011;32044;52.386;13.278;2022-07-23T15:32:40;3.97;;;2.00;;